sensor_id;sensor_type;location;lat;lon;timestamp;P1;durP1;ratioP1;P2;durP2;ratioP2
3491;SDS011;1760;52.480;13.422;2023-03-01T00:00:04;10.87;;;6.57;;
3491;SDS011;1760;52.480;13.422;2023-03-01T00:02:34;23.07;;;9.53;;
3491;SDS011;1760;52.480;13.422;2023-03-01T00:05:05;13.93;;;8.83;;
3491;SDS011;1760;52.480;13.422;2023-03-01T00:07:32;16.00;;;10.00;;
3491;SDS011;1760;52.480;13.422;2023-03-01T00:10:02;20.87;;;9.13;;
3491;SDS011;1760;52.480;13.422;2023-03-01T00:12:29;15.07;;;7.40;;
3491;SDS011;1760;52.480;13.422;2023-03-01T00:15:01;15.93;;;9.57;;
3491;SDS011;1760;52.480;13.422;2023-03-01T00:17:29;11.27;;;7.57;;
3491;SDS011;1760;52.480;13.422;2023-03-01T00:19:58;12.80;;;8.63;;
3491;SDS011;1760;52.480;13.422;2023-03-01T00:22:26;16.10;;;10.07;;
3491;SDS011;1760;52.480;13.422;2023-03-01T00:24:54;16.97;;;8.40;;
3491;SDS011;1760;52.480;13.422;2023-03-01T00:27:21;12.17;;;7.33;;
3491;SDS011;1760;52.480;13.422;2023-03-01T00:29:48;11.97;;;6.50;;
3491;SDS011;1760;52.480;13.422;2023-03-01T00:32:16;12.13;;;8.07;;
3491;SDS011;1760;52.480;13.422;2023-03-01T00:34:43;15.17;;;8.13;;
3491;SDS011;1760;52.480;13.422;2023-03-01T00:37:20;19.63;;;9.00;;
3491;SDS011;1760;52.480;13.422;2023-03-01T00:39:49;14.90;;;7.30;;
3491;SDS011;1760;52.480;13.422;2023-03-01T00:42:16;13.83;;;6.30;;
3491;SDS011;1760;52.480;13.422;2023-03-01T00:44:43;12.50;;;8.23;;
3491;SDS011;1760;52.480;13.422;2023-03-01T00:47:10;17.50;;;7.33;;
3491;SDS011;1760;52.480;13.422;2023-03-01T00:49:38;10.97;;;6.57;;
3491;SDS011;1760;52.480;13.422;2023-03-01T00:52:05;12.10;;;8.00;;
3491;SDS011;1760;52.480;13.422;2023-03-01T00:54:33;14.60;;;8.37;;
3491;SDS011;1760;52.480;13.422;2023-03-01T00:57:03;13.67;;;7.80;;
3491;SDS011;1760;52.480;13.422;2023-03-01T00:59:30;14.13;;;8.20;;
3491;SDS011;1760;52.480;13.422;2023-03-01T01:01:57;20.60;;;10.17;;
3491;SDS011;1760;52.480;13.422;2023-03-01T01:04:24;15.27;;;9.13;;
3491;SDS011;1760;52.480;13.422;2023-03-01T01:06:51;12.63;;;8.30;;
3491;SDS011;1760;52.480;13.422;2023-03-01T01:09:18;15.50;;;10.33;;
3491;SDS011;1760;52.480;13.422;2023-03-01T01:11:47;25.37;;;9.30;;
3491;SDS011;1760;52.480;13.422;2023-03-01T01:14:16;16.17;;;9.20;;
3491;SDS011;1760;52.480;13.422;2023-03-01T01:16:44;11.87;;;7.73;;
3491;SDS011;1760;52.480;13.422;2023-03-01T01:19:11;38.00;;;9.40;;
3491;SDS011;1760;52.480;13.422;2023-03-01T01:21:39;10.67;;;8.57;;
3491;SDS011;1760;52.480;13.422;2023-03-01T01:24:08;13.70;;;7.83;;
3491;SDS011;1760;52.480;13.422;2023-03-01T01:26:35;14.93;;;8.60;;
3491;SDS011;1760;52.480;13.422;2023-03-01T01:29:04;15.57;;;8.57;;
3491;SDS011;1760;52.480;13.422;2023-03-01T01:31:32;16.37;;;8.80;;
3491;SDS011;1760;52.480;13.422;2023-03-01T01:34:00;14.77;;;8.70;;
3491;SDS011;1760;52.480;13.422;2023-03-01T01:36:28;15.27;;;8.07;;
3491;SDS011;1760;52.480;13.422;2023-03-01T01:38:55;20.60;;;10.17;;
3491;SDS011;1760;52.480;13.422;2023-03-01T01:41:22;15.87;;;8.13;;
3491;SDS011;1760;52.480;13.422;2023-03-01T01:46:39;9.77;;;6.40;;
3491;SDS011;1760;52.480;13.422;2023-03-01T01:49:11;9.97;;;7.40;;
3491;SDS011;1760;52.480;13.422;2023-03-01T01:51:51;11.80;;;7.90;;
3491;SDS011;1760;52.480;13.422;2023-03-01T01:54:24;15.13;;;6.43;;
3491;SDS011;1760;52.480;13.422;2023-03-01T01:56:57;15.80;;;7.63;;
3491;SDS011;1760;52.480;13.422;2023-03-01T01:59:32;14.73;;;7.30;;
3491;SDS011;1760;52.480;13.422;2023-03-01T02:02:00;16.57;;;7.87;;
3491;SDS011;1760;52.480;13.422;2023-03-01T02:04:30;14.30;;;9.10;;
3491;SDS011;1760;52.480;13.422;2023-03-01T02:07:01;13.07;;;8.00;;
3491;SDS011;1760;52.480;13.422;2023-03-01T02:09:33;16.00;;;8.13;;
3491;SDS011;1760;52.480;13.422;2023-03-01T02:12:01;15.97;;;8.60;;
3491;SDS011;1760;52.480;13.422;2023-03-01T02:14:30;16.03;;;7.13;;
3491;SDS011;1760;52.480;13.422;2023-03-01T02:16:58;10.90;;;6.30;;
3491;SDS011;1760;52.480;13.422;2023-03-01T02:19:29;16.43;;;6.47;;
3491;SDS011;1760;52.480;13.422;2023-03-01T02:22:08;19.20;;;8.00;;
3491;SDS011;1760;52.480;13.422;2023-03-01T02:24:43;12.40;;;6.77;;
3491;SDS011;1760;52.480;13.422;2023-03-01T02:27:20;12.07;;;6.50;;
3491;SDS011;1760;52.480;13.422;2023-03-01T02:29:54;10.07;;;6.37;;
3491;SDS011;1760;52.480;13.422;2023-03-01T02:32:21;14.00;;;7.93;;
3491;SDS011;1760;52.480;13.422;2023-03-01T02:34:50;11.00;;;6.60;;
3491;SDS011;1760;52.480;13.422;2023-03-01T02:37:20;9.30;;;6.23;;
3491;SDS011;1760;52.480;13.422;2023-03-01T02:39:51;9.27;;;6.10;;
3491;SDS011;1760;52.480;13.422;2023-03-01T02:42:26;11.70;;;6.77;;
3491;SDS011;1760;52.480;13.422;2023-03-01T02:44:58;13.73;;;8.00;;
3491;SDS011;1760;52.480;13.422;2023-03-01T02:47:24;10.53;;;6.73;;
3491;SDS011;1760;52.480;13.422;2023-03-01T02:49:52;11.47;;;6.90;;
3491;SDS011;1760;52.480;13.422;2023-03-01T02:52:37;11.50;;;6.40;;
3491;SDS011;1760;52.480;13.422;2023-03-01T02:55:17;11.80;;;8.43;;
3491;SDS011;1760;52.480;13.422;2023-03-01T02:57:47;11.27;;;6.77;;
3491;SDS011;1760;52.480;13.422;2023-03-01T03:00:26;8.67;;;6.20;;
3491;SDS011;1760;52.480;13.422;2023-03-01T03:03:05;13.10;;;6.63;;
3491;SDS011;1760;52.480;13.422;2023-03-01T03:05:32;10.27;;;7.50;;
3491;SDS011;1760;52.480;13.422;2023-03-01T03:08:02;17.80;;;8.33;;
3491;SDS011;1760;52.480;13.422;2023-03-01T03:10:33;17.00;;;7.83;;
3491;SDS011;1760;52.480;13.422;2023-03-01T03:13:03;10.20;;;6.13;;
3491;SDS011;1760;52.480;13.422;2023-03-01T03:15:33;7.73;;;6.20;;
3491;SDS011;1760;52.480;13.422;2023-03-01T03:18:02;8.20;;;6.30;;
3491;SDS011;1760;52.480;13.422;2023-03-01T03:20:30;9.23;;;6.70;;
3491;SDS011;1760;52.480;13.422;2023-03-01T03:22:58;11.57;;;5.57;;
3491;SDS011;1760;52.480;13.422;2023-03-01T03:25:25;10.13;;;5.70;;
3491;SDS011;1760;52.480;13.422;2023-03-01T03:27:56;8.27;;;5.63;;
3491;SDS011;1760;52.480;13.422;2023-03-01T03:30:25;16.03;;;6.80;;
3491;SDS011;1760;52.480;13.422;2023-03-01T03:32:56;10.50;;;7.33;;
3491;SDS011;1760;52.480;13.422;2023-03-01T03:35:29;9.17;;;5.47;;
3491;SDS011;1760;52.480;13.422;2023-03-01T03:37:58;11.37;;;7.90;;
3491;SDS011;1760;52.480;13.422;2023-03-01T03:40:32;15.87;;;7.70;;
3491;SDS011;1760;52.480;13.422;2023-03-01T03:43:02;9.70;;;6.37;;
3491;SDS011;1760;52.480;13.422;2023-03-01T03:45:30;14.83;;;6.90;;
3491;SDS011;1760;52.480;13.422;2023-03-01T03:48:00;39.77;;;8.47;;
3491;SDS011;1760;52.480;13.422;2023-03-01T03:50:30;10.90;;;6.40;;
3491;SDS011;1760;52.480;13.422;2023-03-01T03:52:59;15.20;;;6.67;;
3491;SDS011;1760;52.480;13.422;2023-03-01T03:55:31;12.70;;;6.73;;
3491;SDS011;1760;52.480;13.422;2023-03-01T03:57:59;12.40;;;6.67;;
3491;SDS011;1760;52.480;13.422;2023-03-01T04:00:31;12.60;;;7.00;;
3491;SDS011;1760;52.480;13.422;2023-03-01T04:03:00;8.47;;;5.00;;
3491;SDS011;1760;52.480;13.422;2023-03-01T04:05:27;16.13;;;8.00;;
3491;SDS011;1760;52.480;13.422;2023-03-01T04:07:57;12.17;;;7.37;;
3491;SDS011;1760;52.480;13.422;2023-03-01T04:10:27;13.03;;;6.37;;
3491;SDS011;1760;52.480;13.422;2023-03-01T04:12:55;17.27;;;8.70;;
3491;SDS011;1760;52.480;13.422;2023-03-01T04:15:23;19.90;;;8.70;;
3491;SDS011;1760;52.480;13.422;2023-03-01T04:17:51;17.27;;;6.10;;
3491;SDS011;1760;52.480;13.422;2023-03-01T04:20:22;15.40;;;7.30;;
3491;SDS011;1760;52.480;13.422;2023-03-01T04:22:50;11.73;;;6.30;;
3491;SDS011;1760;52.480;13.422;2023-03-01T04:25:21;10.67;;;6.53;;
3491;SDS011;1760;52.480;13.422;2023-03-01T04:27:48;13.07;;;6.30;;
3491;SDS011;1760;52.480;13.422;2023-03-01T04:30:15;12.50;;;7.47;;
3491;SDS011;1760;52.480;13.422;2023-03-01T04:32:44;11.30;;;7.40;;
3491;SDS011;1760;52.480;13.422;2023-03-01T04:35:11;11.33;;;6.33;;
3491;SDS011;1760;52.480;13.422;2023-03-01T04:37:39;17.03;;;8.00;;
3491;SDS011;1760;52.480;13.422;2023-03-01T04:40:07;11.07;;;6.80;;
3491;SDS011;1760;52.480;13.422;2023-03-01T04:42:42;12.70;;;7.00;;
3491;SDS011;1760;52.480;13.422;2023-03-01T04:45:09;12.43;;;7.93;;
3491;SDS011;1760;52.480;13.422;2023-03-01T04:47:39;20.60;;;8.63;;
3491;SDS011;1760;52.480;13.422;2023-03-01T04:50:08;17.20;;;8.47;;
3491;SDS011;1760;52.480;13.422;2023-03-01T04:52:36;16.50;;;6.73;;
3491;SDS011;1760;52.480;13.422;2023-03-01T04:55:05;14.63;;;8.73;;
3491;SDS011;1760;52.480;13.422;2023-03-01T04:57:33;14.70;;;8.00;;
3491;SDS011;1760;52.480;13.422;2023-03-01T05:00:00;18.53;;;8.90;;
3491;SDS011;1760;52.480;13.422;2023-03-01T05:02:44;13.97;;;8.47;;
3491;SDS011;1760;52.480;13.422;2023-03-01T05:05:21;19.90;;;9.20;;
3491;SDS011;1760;52.480;13.422;2023-03-01T05:07:54;21.50;;;9.97;;
3491;SDS011;1760;52.480;13.422;2023-03-01T05:10:23;15.00;;;7.20;;
3491;SDS011;1760;52.480;13.422;2023-03-01T05:12:57;10.57;;;6.90;;
3491;SDS011;1760;52.480;13.422;2023-03-01T05:15:24;16.93;;;10.60;;
3491;SDS011;1760;52.480;13.422;2023-03-01T05:17:57;11.43;;;7.03;;
3491;SDS011;1760;52.480;13.422;2023-03-01T05:20:29;20.83;;;7.63;;
3491;SDS011;1760;52.480;13.422;2023-03-01T05:23:03;12.63;;;6.43;;
3491;SDS011;1760;52.480;13.422;2023-03-01T05:25:32;12.80;;;7.73;;
3491;SDS011;1760;52.480;13.422;2023-03-01T05:28:05;19.43;;;9.80;;
3491;SDS011;1760;52.480;13.422;2023-03-01T05:30:35;11.00;;;7.70;;
3491;SDS011;1760;52.480;13.422;2023-03-01T05:33:04;12.20;;;6.83;;
3491;SDS011;1760;52.480;13.422;2023-03-01T05:35:38;23.60;;;9.73;;
3491;SDS011;1760;52.480;13.422;2023-03-01T05:38:05;14.50;;;9.47;;
3491;SDS011;1760;52.480;13.422;2023-03-01T05:40:34;14.53;;;8.37;;
3491;SDS011;1760;52.480;13.422;2023-03-01T05:43:01;13.60;;;8.83;;
3491;SDS011;1760;52.480;13.422;2023-03-01T05:45:30;16.70;;;7.30;;
3491;SDS011;1760;52.480;13.422;2023-03-01T05:47:58;19.27;;;8.83;;
3491;SDS011;1760;52.480;13.422;2023-03-01T05:50:26;12.00;;;8.20;;
3491;SDS011;1760;52.480;13.422;2023-03-01T05:52:57;17.80;;;8.97;;
3491;SDS011;1760;52.480;13.422;2023-03-01T05:55:26;17.83;;;10.10;;
3491;SDS011;1760;52.480;13.422;2023-03-01T05:57:55;16.53;;;7.30;;
3491;SDS011;1760;52.480;13.422;2023-03-01T06:00:25;17.30;;;8.33;;
3491;SDS011;1760;52.480;13.422;2023-03-01T06:02:55;12.83;;;6.47;;
3491;SDS011;1760;52.480;13.422;2023-03-01T06:05:22;19.37;;;7.97;;
3491;SDS011;1760;52.480;13.422;2023-03-01T06:07:50;16.50;;;7.87;;
3491;SDS011;1760;52.480;13.422;2023-03-01T06:10:18;17.57;;;8.03;;
3491;SDS011;1760;52.480;13.422;2023-03-01T06:12:46;11.70;;;7.33;;
3491;SDS011;1760;52.480;13.422;2023-03-01T06:15:17;19.47;;;8.07;;
3491;SDS011;1760;52.480;13.422;2023-03-01T06:17:46;17.20;;;8.43;;
3491;SDS011;1760;52.480;13.422;2023-03-01T06:20:14;14.10;;;7.93;;
3491;SDS011;1760;52.480;13.422;2023-03-01T06:22:42;16.40;;;8.23;;
3491;SDS011;1760;52.480;13.422;2023-03-01T06:25:09;10.43;;;7.47;;
3491;SDS011;1760;52.480;13.422;2023-03-01T06:27:38;13.23;;;7.07;;
3491;SDS011;1760;52.480;13.422;2023-03-01T06:30:06;13.97;;;7.40;;
3491;SDS011;1760;52.480;13.422;2023-03-01T06:32:37;13.80;;;8.27;;
3491;SDS011;1760;52.480;13.422;2023-03-01T06:35:07;13.10;;;7.63;;
3491;SDS011;1760;52.480;13.422;2023-03-01T06:37:34;17.90;;;7.93;;
3491;SDS011;1760;52.480;13.422;2023-03-01T06:40:03;14.20;;;7.90;;
3491;SDS011;1760;52.480;13.422;2023-03-01T06:42:33;14.40;;;8.00;;
3491;SDS011;1760;52.480;13.422;2023-03-01T06:45:00;22.63;;;8.37;;
3491;SDS011;1760;52.480;13.422;2023-03-01T06:47:27;13.60;;;7.80;;
3491;SDS011;1760;52.480;13.422;2023-03-01T06:49:55;18.23;;;7.80;;
3491;SDS011;1760;52.480;13.422;2023-03-01T06:52:22;19.70;;;10.13;;
3491;SDS011;1760;52.480;13.422;2023-03-01T06:54:49;12.10;;;7.73;;
3491;SDS011;1760;52.480;13.422;2023-03-01T06:57:16;13.00;;;8.07;;
3491;SDS011;1760;52.480;13.422;2023-03-01T06:59:42;17.00;;;8.70;;
3491;SDS011;1760;52.480;13.422;2023-03-01T07:02:10;19.70;;;8.93;;
3491;SDS011;1760;52.480;13.422;2023-03-01T07:04:37;21.20;;;8.63;;
3491;SDS011;1760;52.480;13.422;2023-03-01T07:07:06;17.57;;;9.53;;
3491;SDS011;1760;52.480;13.422;2023-03-01T07:09:33;17.37;;;9.20;;
3491;SDS011;1760;52.480;13.422;2023-03-01T07:12:00;10.93;;;7.80;;
3491;SDS011;1760;52.480;13.422;2023-03-01T07:14:27;11.27;;;8.77;;
3491;SDS011;1760;52.480;13.422;2023-03-01T07:16:54;20.40;;;9.10;;
3491;SDS011;1760;52.480;13.422;2023-03-01T07:19:21;12.70;;;8.60;;
3491;SDS011;1760;52.480;13.422;2023-03-01T07:21:48;15.80;;;9.20;;
3491;SDS011;1760;52.480;13.422;2023-03-01T07:24:20;15.87;;;11.53;;
3491;SDS011;1760;52.480;13.422;2023-03-01T07:26:50;19.43;;;10.10;;
3491;SDS011;1760;52.480;13.422;2023-03-01T07:29:18;13.63;;;9.40;;
3491;SDS011;1760;52.480;13.422;2023-03-01T07:31:45;14.00;;;9.07;;
3491;SDS011;1760;52.480;13.422;2023-03-01T07:34:15;19.17;;;11.63;;
3491;SDS011;1760;52.480;13.422;2023-03-01T07:36:44;21.63;;;11.13;;
3491;SDS011;1760;52.480;13.422;2023-03-01T07:39:11;16.10;;;10.27;;
3491;SDS011;1760;52.480;13.422;2023-03-01T07:41:39;18.97;;;10.47;;
3491;SDS011;1760;52.480;13.422;2023-03-01T07:44:06;15.50;;;10.27;;
3491;SDS011;1760;52.480;13.422;2023-03-01T07:46:36;14.47;;;9.17;;
3491;SDS011;1760;52.480;13.422;2023-03-01T07:49:06;14.53;;;10.07;;
3491;SDS011;1760;52.480;13.422;2023-03-01T07:51:33;29.63;;;11.80;;
3491;SDS011;1760;52.480;13.422;2023-03-01T07:53:59;17.13;;;12.57;;
3491;SDS011;1760;52.480;13.422;2023-03-01T07:56:26;13.87;;;10.30;;
3491;SDS011;1760;52.480;13.422;2023-03-01T07:58:55;17.57;;;11.20;;
3491;SDS011;1760;52.480;13.422;2023-03-01T08:01:23;26.90;;;10.97;;
3491;SDS011;1760;52.480;13.422;2023-03-01T08:03:50;24.23;;;11.47;;
3491;SDS011;1760;52.480;13.422;2023-03-01T08:06:17;20.00;;;10.80;;
3491;SDS011;1760;52.480;13.422;2023-03-01T08:08:44;15.83;;;10.33;;
3491;SDS011;1760;52.480;13.422;2023-03-01T08:11:13;22.80;;;12.60;;
3491;SDS011;1760;52.480;13.422;2023-03-01T08:13:41;20.90;;;11.10;;
3491;SDS011;1760;52.480;13.422;2023-03-01T08:16:11;12.47;;;8.90;;
3491;SDS011;1760;52.480;13.422;2023-03-01T08:18:39;18.00;;;10.60;;
3491;SDS011;1760;52.480;13.422;2023-03-01T08:21:07;21.67;;;12.10;;
3491;SDS011;1760;52.480;13.422;2023-03-01T08:23:35;11.90;;;9.80;;
3491;SDS011;1760;52.480;13.422;2023-03-01T08:26:06;18.27;;;10.50;;
3491;SDS011;1760;52.480;13.422;2023-03-01T08:28:36;21.23;;;12.17;;
3491;SDS011;1760;52.480;13.422;2023-03-01T08:31:17;14.20;;;9.47;;
3491;SDS011;1760;52.480;13.422;2023-03-01T08:33:45;17.87;;;9.00;;
3491;SDS011;1760;52.480;13.422;2023-03-01T08:36:15;11.70;;;8.30;;
3491;SDS011;1760;52.480;13.422;2023-03-01T08:38:46;16.03;;;8.90;;
3491;SDS011;1760;52.480;13.422;2023-03-01T08:41:15;13.73;;;8.17;;
3491;SDS011;1760;52.480;13.422;2023-03-01T08:43:42;14.10;;;8.73;;
3491;SDS011;1760;52.480;13.422;2023-03-01T08:46:09;16.07;;;8.47;;
3491;SDS011;1760;52.480;13.422;2023-03-01T08:48:38;16.93;;;9.67;;
3491;SDS011;1760;52.480;13.422;2023-03-01T08:51:08;21.97;;;8.40;;
3491;SDS011;1760;52.480;13.422;2023-03-01T08:53:37;16.80;;;7.50;;
3491;SDS011;1760;52.480;13.422;2023-03-01T08:56:10;12.03;;;5.67;;
3491;SDS011;1760;52.480;13.422;2023-03-01T08:58:39;9.50;;;5.40;;
3491;SDS011;1760;52.480;13.422;2023-03-01T09:01:12;9.30;;;5.87;;
3491;SDS011;1760;52.480;13.422;2023-03-01T09:03:42;12.27;;;6.33;;
3491;SDS011;1760;52.480;13.422;2023-03-01T09:06:10;9.20;;;6.13;;
3491;SDS011;1760;52.480;13.422;2023-03-01T09:08:39;17.60;;;5.80;;
3491;SDS011;1760;52.480;13.422;2023-03-01T09:11:08;59.87;;;25.73;;
3491;SDS011;1760;52.480;13.422;2023-03-01T09:13:36;11.30;;;6.50;;
3491;SDS011;1760;52.480;13.422;2023-03-01T09:16:10;15.63;;;6.67;;
3491;SDS011;1760;52.480;13.422;2023-03-01T09:18:38;11.10;;;6.00;;
3491;SDS011;1760;52.480;13.422;2023-03-01T09:21:07;13.90;;;6.90;;
3491;SDS011;1760;52.480;13.422;2023-03-01T09:23:39;10.57;;;6.53;;
3491;SDS011;1760;52.480;13.422;2023-03-01T09:26:07;13.20;;;7.50;;
3491;SDS011;1760;52.480;13.422;2023-03-01T09:28:36;12.93;;;6.20;;
3491;SDS011;1760;52.480;13.422;2023-03-01T09:31:03;11.90;;;6.57;;
3491;SDS011;1760;52.480;13.422;2023-03-01T09:33:31;9.70;;;6.83;;
3491;SDS011;1760;52.480;13.422;2023-03-01T09:35:59;10.27;;;6.30;;
3491;SDS011;1760;52.480;13.422;2023-03-01T09:38:29;10.47;;;5.37;;
3491;SDS011;1760;52.480;13.422;2023-03-01T09:40:56;7.53;;;4.97;;
3491;SDS011;1760;52.480;13.422;2023-03-01T09:43:25;12.63;;;5.93;;
3491;SDS011;1760;52.480;13.422;2023-03-01T09:45:58;11.47;;;5.40;;
3491;SDS011;1760;52.480;13.422;2023-03-01T09:48:27;7.50;;;4.87;;
3491;SDS011;1760;52.480;13.422;2023-03-01T09:51:00;8.83;;;5.40;;
3491;SDS011;1760;52.480;13.422;2023-03-01T09:53:34;10.70;;;5.87;;
3491;SDS011;1760;52.480;13.422;2023-03-01T09:56:02;13.87;;;5.40;;
3491;SDS011;1760;52.480;13.422;2023-03-01T09:58:39;7.77;;;5.30;;
3491;SDS011;1760;52.480;13.422;2023-03-01T10:01:23;9.10;;;5.60;;
3491;SDS011;1760;52.480;13.422;2023-03-01T10:04:05;9.70;;;5.20;;
3491;SDS011;1760;52.480;13.422;2023-03-01T10:06:51;10.43;;;6.00;;
3491;SDS011;1760;52.480;13.422;2023-03-01T10:09:28;8.23;;;4.87;;
3491;SDS011;1760;52.480;13.422;2023-03-01T10:11:59;7.50;;;5.10;;
3491;SDS011;1760;52.480;13.422;2023-03-01T10:14:32;5.43;;;4.70;;
3491;SDS011;1760;52.480;13.422;2023-03-01T10:17:03;10.70;;;5.00;;
3491;SDS011;1760;52.480;13.422;2023-03-01T10:19:36;5.03;;;3.70;;
3491;SDS011;1760;52.480;13.422;2023-03-01T10:22:10;6.13;;;4.60;;
3491;SDS011;1760;52.480;13.422;2023-03-01T10:24:42;10.67;;;4.90;;
3491;SDS011;1760;52.480;13.422;2023-03-01T10:27:12;5.70;;;4.10;;
3491;SDS011;1760;52.480;13.422;2023-03-01T10:29:45;6.00;;;3.70;;
3491;SDS011;1760;52.480;13.422;2023-03-01T10:32:17;7.50;;;4.00;;
3491;SDS011;1760;52.480;13.422;2023-03-01T10:34:46;7.63;;;6.13;;
3491;SDS011;1760;52.480;13.422;2023-03-01T10:37:14;6.17;;;3.60;;
3491;SDS011;1760;52.480;13.422;2023-03-01T10:39:58;5.73;;;3.63;;
3491;SDS011;1760;52.480;13.422;2023-03-01T10:42:31;6.43;;;4.43;;
3491;SDS011;1760;52.480;13.422;2023-03-01T10:45:15;7.70;;;4.60;;
3491;SDS011;1760;52.480;13.422;2023-03-01T10:47:43;6.97;;;4.57;;
3491;SDS011;1760;52.480;13.422;2023-03-01T10:50:17;8.07;;;5.47;;
3491;SDS011;1760;52.480;13.422;2023-03-01T10:52:55;7.87;;;4.83;;
3491;SDS011;1760;52.480;13.422;2023-03-01T10:55:27;5.53;;;4.63;;
3491;SDS011;1760;52.480;13.422;2023-03-01T10:58:06;9.80;;;4.97;;
3491;SDS011;1760;52.480;13.422;2023-03-01T11:00:44;11.47;;;5.10;;
3491;SDS011;1760;52.480;13.422;2023-03-01T11:03:14;5.30;;;3.83;;
3491;SDS011;1760;52.480;13.422;2023-03-01T11:08:33;7.50;;;3.37;;
3491;SDS011;1760;52.480;13.422;2023-03-01T11:11:18;6.30;;;3.97;;
3491;SDS011;1760;52.480;13.422;2023-03-01T11:13:51;10.57;;;4.37;;
3491;SDS011;1760;52.480;13.422;2023-03-01T11:16:28;7.97;;;4.00;;
3491;SDS011;1760;52.480;13.422;2023-03-01T11:19:03;5.93;;;4.50;;
3491;SDS011;1760;52.480;13.422;2023-03-01T11:21:41;5.07;;;4.27;;
3491;SDS011;1760;52.480;13.422;2023-03-01T11:24:15;9.20;;;4.80;;
3491;SDS011;1760;52.480;13.422;2023-03-01T11:26:46;8.50;;;4.23;;
3491;SDS011;1760;52.480;13.422;2023-03-01T11:29:20;9.10;;;4.70;;
3491;SDS011;1760;52.480;13.422;2023-03-01T11:31:54;5.63;;;3.77;;
3491;SDS011;1760;52.480;13.422;2023-03-01T11:34:28;4.90;;;4.03;;
3491;SDS011;1760;52.480;13.422;2023-03-01T11:37:05;4.73;;;3.17;;
3491;SDS011;1760;52.480;13.422;2023-03-01T11:39:40;8.60;;;3.23;;
3491;SDS011;1760;52.480;13.422;2023-03-01T11:42:15;5.57;;;3.80;;
3491;SDS011;1760;52.480;13.422;2023-03-01T11:44:46;7.27;;;4.60;;
3491;SDS011;1760;52.480;13.422;2023-03-01T11:47:22;8.47;;;4.77;;
3491;SDS011;1760;52.480;13.422;2023-03-01T11:50:08;8.13;;;3.53;;
3491;SDS011;1760;52.480;13.422;2023-03-01T11:52:54;6.27;;;3.30;;
3491;SDS011;1760;52.480;13.422;2023-03-01T11:55:30;12.33;;;4.03;;
3491;SDS011;1760;52.480;13.422;2023-03-01T11:58:23;8.33;;;3.87;;
3491;SDS011;1760;52.480;13.422;2023-03-01T12:01:08;6.00;;;3.47;;
3491;SDS011;1760;52.480;13.422;2023-03-01T12:03:57;6.43;;;2.20;;
3491;SDS011;1760;52.480;13.422;2023-03-01T12:06:50;5.07;;;3.23;;
3491;SDS011;1760;52.480;13.422;2023-03-01T12:09:36;4.50;;;2.80;;
3491;SDS011;1760;52.480;13.422;2023-03-01T12:12:20;5.40;;;3.00;;
3491;SDS011;1760;52.480;13.422;2023-03-01T12:15:01;6.67;;;2.90;;
3491;SDS011;1760;52.480;13.422;2023-03-01T12:18:03;3.80;;;2.63;;
3491;SDS011;1760;52.480;13.422;2023-03-01T12:20:44;3.37;;;2.80;;
3491;SDS011;1760;52.480;13.422;2023-03-01T12:26:16;9.43;;;4.00;;
3491;SDS011;1760;52.480;13.422;2023-03-01T12:28:52;2.83;;;2.33;;
3491;SDS011;1760;52.480;13.422;2023-03-01T12:31:44;5.97;;;2.73;;
3491;SDS011;1760;52.480;13.422;2023-03-01T12:37:40;6.37;;;2.57;;
3491;SDS011;1760;52.480;13.422;2023-03-01T12:40:26;6.90;;;3.57;;
3491;SDS011;1760;52.480;13.422;2023-03-01T12:43:17;4.27;;;2.53;;
3491;SDS011;1760;52.480;13.422;2023-03-01T12:48:50;3.07;;;2.00;;
3491;SDS011;1760;52.480;13.422;2023-03-01T12:51:25;5.43;;;2.20;;
3491;SDS011;1760;52.480;13.422;2023-03-01T12:53:58;1.67;;;1.50;;
3491;SDS011;1760;52.480;13.422;2023-03-01T12:56:28;1.83;;;1.67;;
3491;SDS011;1760;52.480;13.422;2023-03-01T12:58:59;2.57;;;1.97;;
3491;SDS011;1760;52.480;13.422;2023-03-01T13:01:35;4.17;;;2.50;;
3491;SDS011;1760;52.480;13.422;2023-03-01T13:04:16;3.30;;;2.23;;
3491;SDS011;1760;52.480;13.422;2023-03-01T13:07:04;4.50;;;2.30;;
3491;SDS011;1760;52.480;13.422;2023-03-01T13:09:41;3.80;;;2.40;;
3491;SDS011;1760;52.480;13.422;2023-03-01T13:15:27;13.23;;;5.50;;
3491;SDS011;1760;52.480;13.422;2023-03-01T13:17:59;3.93;;;2.10;;
3491;SDS011;1760;52.480;13.422;2023-03-01T13:20:29;2.00;;;1.73;;
3491;SDS011;1760;52.480;13.422;2023-03-01T13:23:04;4.07;;;1.90;;
3491;SDS011;1760;52.480;13.422;2023-03-01T13:25:33;6.77;;;2.40;;
3491;SDS011;1760;52.480;13.422;2023-03-01T13:31:09;3.60;;;2.20;;
3491;SDS011;1760;52.480;13.422;2023-03-01T13:33:57;3.03;;;2.07;;
3491;SDS011;1760;52.480;13.422;2023-03-01T13:36:46;5.80;;;2.70;;
3491;SDS011;1760;52.480;13.422;2023-03-01T13:39:27;5.33;;;2.20;;
3491;SDS011;1760;52.480;13.422;2023-03-01T13:42:00;7.83;;;1.60;;
3491;SDS011;1760;52.480;13.422;2023-03-01T13:44:29;3.73;;;2.20;;
3491;SDS011;1760;52.480;13.422;2023-03-01T13:47:03;4.90;;;2.47;;
3491;SDS011;1760;52.480;13.422;2023-03-01T13:49:43;2.63;;;2.33;;
3491;SDS011;1760;52.480;13.422;2023-03-01T13:55:05;3.63;;;1.80;;
3491;SDS011;1760;52.480;13.422;2023-03-01T13:57:43;3.83;;;2.30;;
3491;SDS011;1760;52.480;13.422;2023-03-01T14:00:24;5.57;;;3.50;;
3491;SDS011;1760;52.480;13.422;2023-03-01T14:03:00;2.83;;;1.60;;
3491;SDS011;1760;52.480;13.422;2023-03-01T14:05:32;6.47;;;2.30;;
3491;SDS011;1760;52.480;13.422;2023-03-01T14:08:02;2.80;;;1.80;;
3491;SDS011;1760;52.480;13.422;2023-03-01T14:10:31;2.80;;;1.90;;
3491;SDS011;1760;52.480;13.422;2023-03-01T14:13:12;4.50;;;2.50;;
3491;SDS011;1760;52.480;13.422;2023-03-01T14:15:56;4.20;;;3.00;;
3491;SDS011;1760;52.480;13.422;2023-03-01T14:18:33;3.90;;;3.47;;
3491;SDS011;1760;52.480;13.422;2023-03-01T14:21:07;4.50;;;2.47;;
3491;SDS011;1760;52.480;13.422;2023-03-01T14:23:37;6.87;;;4.17;;
3491;SDS011;1760;52.480;13.422;2023-03-01T14:26:07;5.30;;;2.50;;
3491;SDS011;1760;52.480;13.422;2023-03-01T14:28:37;6.20;;;2.63;;
3491;SDS011;1760;52.480;13.422;2023-03-01T14:34:00;4.80;;;2.10;;
3491;SDS011;1760;52.480;13.422;2023-03-01T14:36:28;3.07;;;2.20;;
3491;SDS011;1760;52.480;13.422;2023-03-01T14:39:00;2.13;;;1.70;;
3491;SDS011;1760;52.480;13.422;2023-03-01T14:41:41;13.43;;;4.47;;
3491;SDS011;1760;52.480;13.422;2023-03-01T14:44:12;4.80;;;2.80;;
3491;SDS011;1760;52.480;13.422;2023-03-01T14:46:43;3.97;;;2.20;;
3491;SDS011;1760;52.480;13.422;2023-03-01T14:49:14;10.40;;;2.30;;
3491;SDS011;1760;52.480;13.422;2023-03-01T14:51:46;6.40;;;2.70;;
3491;SDS011;1760;52.480;13.422;2023-03-01T14:54:23;3.50;;;2.37;;
3491;SDS011;1760;52.480;13.422;2023-03-01T14:56:52;5.40;;;2.80;;
3491;SDS011;1760;52.480;13.422;2023-03-01T14:59:21;4.93;;;2.07;;
3491;SDS011;1760;52.480;13.422;2023-03-01T15:01:50;3.80;;;1.93;;
3491;SDS011;1760;52.480;13.422;2023-03-01T15:04:21;4.53;;;2.47;;
3491;SDS011;1760;52.480;13.422;2023-03-01T15:06:50;4.50;;;2.23;;
3491;SDS011;1760;52.480;13.422;2023-03-01T15:09:22;2.67;;;2.00;;
3491;SDS011;1760;52.480;13.422;2023-03-01T15:11:51;4.20;;;2.33;;
3491;SDS011;1760;52.480;13.422;2023-03-01T15:17:20;4.40;;;1.80;;
3491;SDS011;1760;52.480;13.422;2023-03-01T15:19:53;3.17;;;2.20;;
3491;SDS011;1760;52.480;13.422;2023-03-01T15:22:20;5.30;;;2.90;;
3491;SDS011;1760;52.480;13.422;2023-03-01T15:24:49;3.47;;;2.43;;
3491;SDS011;1760;52.480;13.422;2023-03-01T15:27:18;7.20;;;2.67;;
3491;SDS011;1760;52.480;13.422;2023-03-01T15:29:48;3.93;;;2.77;;
3491;SDS011;1760;52.480;13.422;2023-03-01T15:32:25;12.93;;;2.27;;
3491;SDS011;1760;52.480;13.422;2023-03-01T15:34:54;4.50;;;2.50;;
3491;SDS011;1760;52.480;13.422;2023-03-01T15:40:19;3.40;;;2.33;;
3491;SDS011;1760;52.480;13.422;2023-03-01T15:42:50;3.73;;;2.20;;
3491;SDS011;1760;52.480;13.422;2023-03-01T15:45:21;3.27;;;1.77;;
3491;SDS011;1760;52.480;13.422;2023-03-01T15:47:52;2.67;;;2.10;;